NWS Home NWS Lubbock West Texas Mesonet                      Daily Summary For 09/20/2018

Latest   N   C   S   Daily Sum   3hrΔ   24hrΔ   Soil Data 
Site Map   24hr Precip   72hr Precip   Google Plot

Previous  Date  


Station Time of Last Max Temp Min Temp Max/Min Dew Pt. Max/Min RH 10m Avg Wind 2m Avg Wind Peak Gust @ 33ft (mph) Potential Evapotranspiration
mm/day or in/day
Rain Sum Solar Rad
MJ/m^2
% Clear Day Red Flag
Abernathy 5ENE 06:30 AM 73 66 63 /61 93 / 70 12.3  (S) 8.2 22.1 mph 185° @ 0540 AM 1.5 or 0.06 0.00 0 0 0
Adrian 6WSW 06:30 AM 73 61 61 /57 88 / 67 18.8  (S) 13.2 33 mph 189° @ 0211 AM 2 or 0.08 0.00 0 0 0
Aiken 3WSW 06:30 AM 74 65 64 /61 92 / 69 11.3  (S) 7.7 21.3 mph 174° @ 1207 AM 1.5 or 0.06 0.00 0 0 0
Amarillo 15NNW 06:30 AM 78 68 64 /61 88 / 60 17.4  (S) 11.8 30.8 mph 174° @ 1204 AM 2.5 or 0.1 0.00 0 0 0
Amarillo 7SSE 06:30 AM 75 64 63 /61 95 / 63 11.7  (S) 7.8 27.3 mph 175° @ 1228 AM 1.5 or 0.06 0.00 0 0 0
Amarillo 9NNE 06:30 AM 77 68 64 /62 87 / 61 16.2  (S) 10.3 30.1 mph 171° @ 1248 AM 2.3 or 0.09 0.00 0 0 0
Amherst 1NE 06:30 AM 71 62 61 /58 92 / 70 9.7  (S) 6.3 18.6 mph 169° @ 0625 AM 1.5 or 0.06 0.00 0 0 0
Andrews 2E 06:30 AM 71 66 63 /54 87 / 57 7.8  (SE) 4.5 15.9 mph 160° @ 0620 AM 1.5 or 0.06 0.00 0 0 0
Anton 6SSW 06:30 AM 74 65 64 /62 94 / 72 14.3  (S) 11.5 26.5 mph 171° @ 1220 AM 1.5 or 0.06 0.00 0 0 0
Aspermont 3NE 06:30 AM 76 68 65 /65 91 / 69 6.4  (S) 3 11.5 mph 160° @ 0225 AM 1.3 or 0.05 0.00 0 0 0
Big Bend NP - Persimmon Gap 06:30 AM 72 67 65 /62 90 / 72 6.5  (NE) 5.1 11.8 mph 45° @ 1216 AM 1 or 0.04 0.00 0 0 0
Big Lake 1WNW 06:30 AM 71 68 68 /64 92 / 81 8.9  (SE) 6.9 18.4 mph 170° @ 0614 AM 0.8 or 0.03 0.00 0 0 0
Bootleg 11WNW 06:30 AM 71 60 61 /56 89 / 69 14.5  (S) 10.2 24.7 mph 174° @ 1212 AM 1.8 or 0.07 0.00 0 0 0
Boys Ranch 1WSW 06:30 AM 78 68 62 /58 73 / 57 12  (S) 9 32.6 mph 188° @ 0214 AM 2.3 or 0.09 0.00 0 0 0
Brownfield 2S 06:30 AM 72 65 63 /61 90 / 74 12.9  (S) 9.8 20.5 mph 168° @ 1245 AM 1.5 or 0.06 0.00 0 0 0
Canadian 6E 06:30 AM 79 68 63 /63 85 / 59 9.6  (S) 5.6 22.6 mph 177° @ 1238 AM 1.8 or 0.07 0.00 0 0 0
Caprock Canyons State Park 06:30 AM 75 69 65 /63 83 / 66 11.6  (S) 6.9 19.6 mph 189° @ 0548 AM 1.8 or 0.07 0.00 0 0 0
Childress 2NNE 06:30 AM 78 69 63 /62 84 / 61 11.3  (S) 7.4 18.6 mph 171° @ 0500 AM 2 or 0.08 0.00 0 0 0
Clarendon 2WSW 06:30 AM 76 67 61 /60 83 / 63 11.4  (S) 7.5 21.3 mph 173° @ 0105 AM 2 or 0.08 0.00 0 0 0
Claude 12SW 06:30 AM 76 68 63 /62 83 / 62 13.1  (S) 8.7 30.5 mph 180° @ 0129 AM 2 or 0.08 0.00 0 0 0
Clyde 2WNW 06:30 AM 73 68 67 /65 97 / 76 8  (SE) 5.7 18.6 mph 167° @ 0429 AM 1 or 0.04 0.00 0 0 0
Colorado City 5NW 06:30 AM 75 68 67 /64 94 / 70 7.5  (S) 4.3 13.4 mph 176° @ 1203 AM 1 or 0.04 0.00 0 0 0
Coyanosa 2N 06:30 AM 73 69 62 /60 78 / 66 11.9  (SE) 7.9 22.2 mph 133° @ 0259 AM 1.8 or 0.07 0.00 0 0 0
Crane 1NNW 06:30 AM 74 71 67 /60 85 / 64 12.8  (E) 10.7 22.6 mph 174° @ 0611 AM 1.8 or 0.07 0.00 0 0 0
Crowell 1E 06:30 AM 80 71 66 /64 85 / 58 7.7  (S) 4.8 12.7 mph 179° @ 0455 AM 1.5 or 0.06 0.00 0 0 0
Dell City 06:30 AM 70 65 63 /60 91 / 71 4.4  (SE) 3 12.5 mph 148° @ 1201 AM 1 or 0.04 0.00 0 0 0
Denver City 7WNW 06:30 AM 68 59 58 /54 92 / 68 8.6  (SE) 5.1 19 mph 153° @ 0315 AM 1.3 or 0.05 0.00 0 0 0
Dimmitt 2NE 06:30 AM 73 63 61 /59 93 / 68 13.8  (S) 9.2 26.7 mph 170° @ 1205 AM 1.8 or 0.07 0.00 0 0 0
Dora NM 2SW 06:30 AM 66 60 57 /55 93 / 74 12.4  (S) 7.9 19.8 mph 180° @ 1240 AM 1.3 or 0.05 0.00 0 0 0
Dozier 3W 06:30 AM 78 69 64 /64 85 / 62 7.1  (S) 3.4 18.1 mph 172° @ 0108 AM 1.5 or 0.06 0.00 0 0 0
Earth 9WSW 06:30 AM 72 62 61 /59 95 / 69 11.9  (S) 8.7 24.8 mph 166° @ 1248 AM 1.5 or 0.06 0.00 0 0 0
Endee NM 2SW 06:30 AM 75 64 62 /57 82 / 63 15.3  (S) 11.5 27.4 mph 170° @ 1212 AM 2.3 or 0.09 0.00 0 0 0
Estelline 3SSE 06:30 AM 78 70 64 /63 80 / 60 8.6  (S) 5.4 15.9 mph 164° @ 0543 AM 1.8 or 0.07 0.00 0 0 0
Floydada 2NNE 06:30 AM 74 67 63 /61 90 / 68 11.6  (S) 7.2 18.9 mph 173° @ 0415 AM 1.8 or 0.07 0.00 0 0 0
Fluvanna 3WNW 06:30 AM 74 68 63 /61 90 / 68 11.3  (S) 8.9 17.5 mph 160° @ 0610 AM 1.8 or 0.07 0.00 0 0 0
Fort Chadbourne 06:30 AM 72 68 67 /66 98 / 83 3.3  (S) 1 7.3 mph 141° @ 0217 AM 0.8 or 0.03 0.00 0 0 0
Fort Lancaster 06:30 AM 74 70 71 /66 93 / 84 9.2  (E) 6.5 21 mph 152° @ 0525 AM 0.8 or 0.03 0.00 0 0 0
Fort Lewis CO 06:30 AM 52 49 50 /46 96 / 86 5.5  (SE) 2.4 21 mph 94° @ 0131 AM 0.8 or 0.03 0.02 0 0 0
Fort McKavett 06:30 AM 73 71 71 /67 99 / 84 4.9  (SE) 2.3 12.9 mph 150° @ 0230 AM 0.5 or 0.02 0.00 0 0 0
Friona 2NE 06:30 AM 72 61 60 /56 91 / 69 12.6  (S) 7.8 23.4 mph 180° @ 0110 AM 1.8 or 0.07 0.00 0 0 0
Fritch 1WNW 06:30 AM 78 70 63 /62 78 / 57 16.7  (S) 13.4 30.8 mph 193° @ 1209 AM 2.8 or 0.11 0.00 0 0 0
Gail 2ESE 06:30 AM 74 66 63 /61 92 / 68 6.6  (S) 2.5 13 mph 158° @ 0315 AM 1.3 or 0.05 0.00 0 0 0
Goodlett 3W 06:30 AM 80 71 63 /61 78 / 53 9.8  (S) 6.6 17.5 mph 165° @ 1240 AM 2.3 or 0.09 0.00 0 0 0
Goodnight 06:30 AM 76 67 63 /62 86 / 61 12.9  (S) 8.5 21 mph 169° @ 1214 AM 1.8 or 0.07 0.00 0 0 0
Graham 5SSW 06:30 AM 76 67 64 /61 91 / 63 11.7  (S) 8.8 27.2 mph 173° @ 0505 AM 1.8 or 0.07 0.00 0 0 0
Guadalupe Mtns Natl Park 06:30 AM 68 63 58 /55 88 / 66 8.3  (SW) 6.5 16.4 mph 252° @ 1234 AM 1.3 or 0.05 0.00 0 0 0
Guthrie 10WSW 06:30 AM 77 69 63 /61 81 / 61 9  (S) 5.7 13.3 mph 160° @ 0200 AM 1.8 or 0.07 0.00 0 0 0
Happy 1E 06:30 AM 74 64 63 /62 93 / 67 13.6  (S) 9.3 23.1 mph 173° @ 1201 AM 1.5 or 0.06 0.00 0 0 0
Hart 3N 06:30 AM 73 65 63 /61 92 / 67 11  (S) 6.2 21.6 mph 183° @ 0115 AM 1.5 or 0.06 0.00 0 0 0
Haskell 1NW 06:30 AM 77 70 65 /63 87 / 64 6.7  (S) 4.4 13.4 mph 168° @ 1215 AM 1.5 or 0.06 0.00 0 0 0
Hereford 2NW 06:30 AM 73 63 59 /55 88 / 62 11.2  (S) 7.8 23.9 mph 192° @ 0120 AM 2 or 0.08 0.00 0 0 0
Hobbs NM 5NW 06:30 AM 69 65 61 /56 86 / 68 10.7  (S) 8.7 19.4 mph 165° @ 0355 AM 1.5 or 0.06 0.00 0 0 0
Jayton 1SSE 06:30 AM 76 69 64 /61 87 / 64 6.6  (S) 3.9 11.5 mph 167° @ 0520 AM 1.5 or 0.06 0.00 0 0 0
Junction 1SSW 06:30 AM 76 73 72 /69 94 / 83 5.3  (SE) 3.9 18.9 mph 166° @ 0113 AM 0.8 or 0.03 0.00 0 0 0
Knox City 3NW 06:30 AM 78 70 66 /64 89 / 66 9  (S) 6.1 13.7 mph 158° @ 0120 AM 1.5 or 0.06 0.00 0 0 0
Lake Alan Henry 1NW 06:30 AM 78 71 66 /64 85 / 61 9.4  (S) 5.8 20.5 mph 197° @ 0521 AM 1.8 or 0.07 0.00 0 0 0
Lamesa 2SE 06:30 AM 72 66 64 /62 93 / 78 9  (S) 5.3 16.7 mph 160° @ 0630 AM 1.3 or 0.05 0.00 0 0 0
Lesley 2S 06:30 AM 79 69 65 /63 84 / 62 7.2  (S) 4.2 15.5 mph 171° @ 1202 AM 1.5 or 0.06 0.00 0 0 0
Levelland 4S 06:30 AM 71 64 62 /58 90 / 66 10.9  (S) 7.9 19.4 mph 169° @ 0510 AM 1.5 or 0.06 0.00 0 0 0
Lomax 1SSE 06:30 AM 74 68 66 /65 91 / 74 7.8  (S) 5 20.7 mph 174° @ 0626 AM 1 or 0.04 0.00 0 0 0
Lubbock 3WNW TTU 06:30 AM 75 68 63 /60 89 / 63 11.8  (S) 6.4 22 mph 176° @ 1240 AM 1.8 or 0.07 0.00 0 0 0
McCamey 1SSW 06:30 AM 73 71 68 /63 89 / 71 8.1  (SE) 6.9 18.1 mph 146° @ 0625 AM 1.3 or 0.05 0.00 0 0 0
McLean 1E 06:30 AM 76 68 61 /61 82 / 63 12.7  (S) 10.3 23.5 mph 180° @ 0140 AM 2 or 0.08 0.00 0 0 0
Memphis 1NE 06:30 AM 80 66 63 /61 90 / 57 3.8  (S) 2 15.3 mph 165° @ 1205 AM 1.3 or 0.05 0.00 0 0 0
Menard 2NW 06:30 AM 73 69 69 /68 100 / 85 2.6  (SE) 1.2 10.4 mph 161° @ 0313 AM 0.5 or 0.02 0.00 0 0 0
Mertzon 3NNE 06:30 AM 72 69 69 /66 97 / 84 4.6  (S) 1.6 11.3 mph 183° @ 0342 AM 0.8 or 0.03 0.00 0 0 0
Morton 1ENE 06:30 AM 70 63 59 /56 88 / 71 9.9  (S) 6.7 18.6 mph 170° @ 0500 AM 1.5 or 0.06 0.00 0 0 0
Muleshoe 2SSW 06:30 AM 71 60 60 /57 91 / 70 10.3  (S) 6.9 23.4 mph 167° @ 1215 AM 1.5 or 0.06 0.00 0 0 0
New Home 06:30 AM 73 67 64 /63 92 / 69 10.2  (S) 7.7 18.7 mph 176° @ 0445 AM 1.3 or 0.05 0.00 0 0 0
Northfield 1S 06:30 AM 78 70 63 /62 79 / 59 10.2  (S) 6.1 18.9 mph 184° @ 0530 AM 2 or 0.08 0.00 0 0 0
O'Donnell 1N 06:30 AM 73 67 62 /60 87 / 66 8.7  (S) 6.2 18.1 mph 169° @ 0515 AM 1.5 or 0.06 0.00 0 0 0
Odell 4ENE 06:30 AM 79 72 66 /63 82 / 59 10.9  (SE) 7.3 15.9 mph 163° @ 1237 AM 2 or 0.08 0.00 0 0 0
Olton 6S 06:30 AM 74 65 62 /61 90 / 65 13.9  (S) 9.7 22.1 mph 174° @ 0500 AM 1.8 or 0.07 0.00 0 0 0
Paducah 10SW 06:30 AM 76 66 63 /62 91 / 65 7.8  (S) 3.7 13.7 mph 184° @ 0325 AM 1.5 or 0.06 0.00 0 0 0
Palo Duro 4E (JA Ranch) 06:30 AM 75 63 63 /60 92 / 65 6.5  (S) 3.2 15.9 mph 174° @ 1250 AM 1.3 or 0.05 0.00 0 0 0
Palo Duro Canyon SP Floor 06:30 AM 79 70 63 /63 78 / 58 7.3  (SE) 2.8 24.7 mph 155° @ 1227 AM 1.8 or 0.07 0.00 0 0 0
Palo Duro Canyon State Park Rim 06:30 AM 76 66 62 /61 85 / 62 10.4  (S) 5.3 24.4 mph 165° @ 1238 AM 1.8 or 0.07 0.00 0 0 0
Pampa 2E 06:30 AM 75 67 63 /62 86 / 65 12.7  (S) 8.7 26.3 mph 169° @ 1220 AM 1.8 or 0.07 0.00 0 0 0
Panhandle 1SSW 06:30 AM 76 67 63 /62 83 / 62 16.4  (S) 12 29.8 mph 178° @ 1211 AM 2.3 or 0.09 0.00 0 0 0
Plains 3N 06:30 AM 69 61 59 /56 94 / 70 9.7  (SE) 6.8 18.4 mph 151° @ 1205 AM 1.5 or 0.06 0.00 0 0 0
Plainview 1S 06:30 AM 74 66 64 /62 93 / 71 9.8  (S) 6.2 19.7 mph 176° @ 0100 AM 1.5 or 0.06 0.00 0 0 0
Post 1NE 06:30 AM 77 69 64 /61 85 / 59 10.2  (S) 6 21.4 mph 181° @ 0340 AM 1.8 or 0.07 0.00 0 0 0
Ralls 1SE 06:30 AM 74 67 62 /59 88 / 64 11.9  (S) 7.3 19.7 mph 180° @ 0445 AM 2 or 0.08 0.00 0 0 0
Reese Center 06:30 AM 73 65 63 /62 91 / 70 14.1  (S) 9.7 23.2 mph 183° @ 1235 AM 1.5 or 0.06 0.00 0 0 0
Roaring Springs 3N 06:30 AM 76 65 64 /63 98 / 70 9.3  (S) 5.3 17 mph 183° @ 1210 AM 1.5 or 0.06 0.00 0 0 0
Rotan 5W 06:30 AM 76 69 67 /64 88 / 66 8.3  (S) 5.2 19.4 mph 183° @ 0627 AM 1.3 or 0.05 0.00 0 0 0
San Angelo 7NW 06:30 AM 73 69 65 /64 90 / 77 6.2  (SE) 3.5 11.4 mph 115° @ 0325 AM 1 or 0.04 0.00 0 0 0
Seagraves 1SW 06:25 AM 69 63 61 /59 96 / 75 7.7  (SE) 4.5 15.5 mph 155° @ 1255 AM 1 or 0.04 0.00 0 0 0
Seminole 2NNE 06:30 AM 69 63 60 /55 92 / 64 9.2  (SE) 5.6 17 mph 154° @ 1235 AM 1.5 or 0.06 0.00 0 0 0
Seymour 3NW 06:30 AM 78 71 65 /63 86 / 64 7.6  (S) 5.2 13.6 mph 155° @ 1210 AM 1.5 or 0.06 0.00 0 0 0
Sierra Blanca 1SSE 06:30 AM 71 66 63 /59 91 / 65 12.2  (SE) 9.3 26 mph 171° @ 0132 AM 1.5 or 0.06 0.00 0 0 0
Silverton 7ESE 06:30 AM 74 68 62 /60 84 / 65 14.8  (S) 10.3 26.9 mph 180° @ 1245 AM 2.3 or 0.09 0.00 0 0 0
Slaton 2NE 06:30 AM 74 68 64 /61 88 / 67 13.8  (S) 9.1 27 mph 185° @ 0500 AM 1.8 or 0.07 0.00 0 0 0
Snyder 3E 06:30 AM 73 68 66 /63 95 / 75 10  (S) 4.4 16.3 mph 164° @ 0330 AM 1.3 or 0.05 0.00 0 0 0
Snyder 3SSW 06:30 AM 75 69 67 /64 92 / 69 8.2  (S) 6 14.5 mph 173° @ 0419 AM 1.3 or 0.05 0.00 0 0 0
Spur 1W 06:30 AM 74 66 62 /60 88 / 65 3.8  (S) 1.1 9.9 mph 189° @ 1250 AM 1 or 0.04 0.00 0 0 0
St. Lawrence 5SW 06:30 AM 72 68 65 /63 92 / 76 9.3  (S) 6.1 15.8 mph 159° @ 0500 AM 1.3 or 0.05 0.00 0 0 0
Stamford 5ESE 06:30 AM 78 70 68 /66 91 / 67 6.7  (S) 4.2 11 mph 163° @ 0415 AM 1.3 or 0.05 0.00 0 0 0
Sterling City 4WSW 06:30 AM 72 67 68 /65 99 / 78 6  (SE) 3.6 13.1 mph 135° @ 0421 AM 0.8 or 0.03 0.00 0 0 0
Stinnett 1NNW 06:30 AM 76 68 63 /62 83 / 60 14.5  (S) 9.2 29 mph 185° @ 0105 AM 2 or 0.08 0.00 0 0 0
Sundown 8WSW 06:30 AM 67 62 60 /59 94 / 83 10.7  (S) 6.6 17 mph 164° @ 0350 AM 1 or 0.04 0.00 0 0 0
Sweetwater 11SW 06:30 AM 74 70 69 /65 97 / 76 12.4  (S) 9.3 22 mph 167° @ 0416 AM 1 or 0.04 0.00 0 0 0
Tahoka 3NNE 06:30 AM 73 67 64 /61 89 / 67 10.7  (S) 6.8 22.2 mph 179° @ 0531 AM 1.5 or 0.06 0.00 0 0 0
Tarzan 2WNW 06:30 AM 74 68 66 /62 89 / 74 10  (S) 6.4 20.5 mph 167° @ 0540 AM 1.3 or 0.05 0.00 0 0 0
Tatum NM 2SW 06:30 AM 64 60 58 /55 89 / 82 8.5  (S) 3.9 16.2 mph 145° @ 0240 AM 1 or 0.04 0.00 0 0 0
Throckmorton 1SW 06:30 AM 76 71 68 /65 88 / 69 6.7  (S) 2.6 14.9 mph 171° @ 0510 AM 1.3 or 0.05 0.00 0 0 0
Tulia 2ENE 06:30 AM 74 65 61 /60 90 / 66 12  (S) 7.8 21.5 mph 173° @ 1215 AM 1.8 or 0.07 0.00 0 0 0
Turkey 2WSW 06:30 AM 76 66 64 /62 90 / 66 8.5  (SE) 5.5 15.9 mph 151° @ 1240 AM 1.5 or 0.06 0.00 0 0 0
Umbarger 3NNE 06:30 AM 74 65 63 /60 90 / 65 16.6  (S) 11.5 28.2 mph 179° @ 1231 AM 2 or 0.08 0.00 0 0 0
Van Horn 3ENE 06:30 AM 70 67 63 /61 87 / 72 7.2  (SW) 4.7 15 mph 224° @ 0148 AM 1 or 0.04 0.00 0 0 0
Vigo Park 06:30 AM 74 64 63 /61 93 / 68 12.7  (S) 7.6 22.4 mph 170° @ 1241 AM 1.5 or 0.06 0.00 0 0 0
Wall 2E 06:30 AM 72 69 69 /67 96 / 88 7.6  (SE) 4.4 15.6 mph 161° @ 0406 AM 0.8 or 0.03 0.00 0 0 0
Weinert 2NNE 06:30 AM 80 73 67 /64 80 / 59 10.8  (S) 7.6 20.4 mph 180° @ 1249 AM 2 or 0.08 0.00 0 0 0
Welch 06:30 AM 73 66 66 /63 94 / 77 11.8  (S) 8.9 20.9 mph 171° @ 0440 AM 1.3 or 0.05 0.00 0 0 0
White River Lake 6NW 06:30 AM 76 68 63 /60 88 / 61 9.9  (S) 6 20.3 mph 177° @ 1215 AM 1.8 or 0.07 0.00 0 0 0
Wolfforth 6SSW 06:30 AM 73 66 63 /62 92 / 73 10.9  (S) 7.7 20.9 mph 177° @ 1210 AM 1.5 or 0.06 0.00 0 0 0

WestTexas Mesonet Home    Site Map/Menu  National Weather Service Lubbock   Soil Data   Latest Observation Page   Previous  Date